Time;durP1;ratioP1;P1;durP2;ratioP2;P2;SDS_P1;SDS_P2;PMS_P1;PMS_P2;Temp;Humidity;BMP_temperature;BMP_pressure;BME280_temperature;BME280_humidity;BME280_pressure;Samples;Min_cycle;Max_cycle;Signal;HPM_P1;HPM_P2
2024/03/10 00:01:37;;;;;;;14.90;8.40;;;;;;;-0.70;100.00;100307.46;106147;1260;65944;-57
2024/03/10 00:04:04;;;;;;;15.50;8.50;;;;;;;-0.73;100.00;100306.20;105999;1259;72580;-56
2024/03/10 00:06:32;;;;;;;20.40;9.30;;;;;;;-0.78;100.00;100308.64;105932;1260;61721;-56
2024/03/10 00:08:59;;;;;;;17.40;9.60;;;;;;;-0.81;100.00;100302.45;105967;1259;60436;-57
2024/03/10 00:11:27;;;;;;;18.10;9.50;;;;;;;-0.87;100.00;100306.48;106141;1258;74298;-56
2024/03/10 00:13:57;;;;;;;17.00;10.60;;;;;;;-0.92;100.00;100301.67;106019;1258;66282;-56
2024/03/10 00:16:25;;;;;;;19.00;10.00;;;;;;;-0.97;100.00;100300.94;106009;1254;72685;-56
2024/03/10 00:18:52;;;;;;;18.30;9.80;;;;;;;-1.00;100.00;100300.20;106003;1261;60546;-56
2024/03/10 00:21:20;;;;;;;16.00;10.50;;;;;;;-1.05;100.00;100301.06;105996;1254;60210;-57
2024/03/10 00:23:47;;;;;;;22.00;10.60;;;;;;;-1.11;100.00;100302.06;106077;1253;74039;-55
2024/03/10 00:26:15;;;;;;;24.80;11.20;;;;;;;-1.15;100.00;100299.75;106042;1259;67049;-55
2024/03/10 00:28:42;;;;;;;21.80;11.10;;;;;;;-1.18;100.00;100298.13;106000;1255;72638;-55
2024/03/10 00:31:10;;;;;;;17.90;10.00;;;;;;;-1.21;100.00;100298.30;106064;1258;60642;-55
2024/03/10 00:33:37;;;;;;;17.50;10.50;;;;;;;-1.24;100.00;100298.27;106049;1256;60698;-55
2024/03/10 00:36:05;;;;;;;17.60;9.50;;;;;;;-1.27;100.00;100300.88;106034;1254;73847;-56
2024/03/10 00:38:32;;;;;;;18.20;9.90;;;;;;;-1.28;100.00;100297.55;109029;1253;66032;-56
2024/03/10 00:41:00;;;;;;;15.30;9.50;;;;;;;-1.28;100.00;100297.20;109060;1253;71608;-56
2024/03/10 00:43:28;;;;;;;21.20;9.40;;;;;;;-1.26;100.00;100295.25;108943;1254;59502;-56
2024/03/10 00:45:56;;;;;;;14.70;8.40;;;;;;;-1.24;100.00;100293.70;106979;1258;60504;-55
2024/03/10 00:48:23;;;;;;;17.90;9.00;;;;;;;-1.21;100.00;100291.62;106224;1253;73947;-56
2024/03/10 00:50:50;;;;;;;17.60;9.90;;;;;;;-1.20;100.00;100290.74;109085;1254;65497;-56
2024/03/10 00:53:18;;;;;;;14.10;8.90;;;;;;;-1.19;100.00;100287.56;106484;1256;72920;-55
2024/03/10 00:55:46;;;;;;;17.00;9.60;;;;;;;-1.20;100.00;100285.98;106701;1253;60522;-56
2024/03/10 00:58:13;;;;;;;17.00;10.00;;;;;;;-1.21;100.00;100282.80;106126;1254;61291;-57
2024/03/10 01:00:41;;;;;;;24.10;9.90;;;;;;;-1.24;100.00;100279.96;106100;1258;74446;-56
2024/03/10 01:03:11;;;;;;;17.00;10.00;;;;;;;-1.27;100.00;100281.34;106097;1258;67076;-58
2024/03/10 01:05:38;;;;;;;19.70;10.40;;;;;;;-1.30;100.00;100281.15;106007;1256;72805;-55
2024/03/10 01:08:06;;;;;;;18.90;11.00;;;;;;;-1.32;100.00;100278.84;105965;1255;60535;-57
2024/03/10 01:10:33;;;;;;;21.30;11.00;;;;;;;-1.34;100.00;100279.00;106027;1256;60307;-57
2024/03/10 01:13:00;;;;;;;21.40;11.80;;;;;;;-1.35;100.00;100280.39;106098;1259;74224;-56
2024/03/10 01:15:28;;;;;;;16.30;10.20;;;;;;;-1.36;100.00;100276.70;105998;1260;67876;-56
2024/03/10 01:17:55;;;;;;;19.40;11.40;;;;;;;-1.39;100.00;100271.92;106036;1257;72702;-56
2024/03/10 01:20:22;;;;;;;19.70;11.20;;;;;;;-1.43;100.00;100272.05;105971;1258;61431;-56
2024/03/10 01:22:50;;;;;;;21.10;11.10;;;;;;;-1.46;100.00;100271.86;105935;1254;62169;-56
2024/03/10 01:25:17;;;;;;;20.30;10.00;;;;;;;-1.49;100.00;100267.43;106071;1253;73956;-56
2024/03/10 01:27:44;;;;;;;22.60;10.20;;;;;;;-1.53;100.00;100266.70;106144;1262;66509;-56
2024/03/10 01:30:12;;;;;;;20.50;11.90;;;;;;;-1.56;100.00;100260.70;106087;1258;72744;-56
2024/03/10 01:32:40;;;;;;;17.20;9.40;;;;;;;-1.58;100.00;100257.85;106281;1256;60556;-56
2024/03/10 01:35:08;;;;;;;18.50;9.30;;;;;;;-1.60;100.00;100257.84;106031;1261;60528;-56
2024/03/10 01:37:35;;;;;;;20.20;9.30;;;;;;;-1.60;100.00;100255.73;106083;1253;72935;-56
2024/03/10 01:40:04;;;;;;;15.60;8.50;;;;;;;-1.59;100.00;100254.67;106106;1259;67258;-57
2024/03/10 01:42:32;;;;;;;16.50;8.20;;;;;;;-1.57;100.00;100250.83;106210;1256;71345;-56
2024/03/10 01:45:04;;;;;;;16.10;8.50;;;;;;;-1.53;100.00;100248.21;106132;1256;60454;-56
2024/03/10 01:47:31;;;;;;;20.60;9.20;;;;;;;-1.51;100.00;100249.11;105911;1254;59536;-58
2024/03/10 01:49:59;;;;;;;20.20;10.10;;;;;;;-1.49;100.00;100246.48;106265;1258;72585;-56
2024/03/10 01:52:26;;;;;;;18.60;9.70;;;;;;;-1.48;100.00;100247.73;105934;1254;66147;-56
2024/03/10 01:54:55;;;;;;;17.10;10.30;;;;;;;-1.48;100.00;100246.84;105830;1260;75025;-57
2024/03/10 01:57:22;;;;;;;22.10;11.00;;;;;;;-1.47;100.00;100244.58;106111;1272;60665;-56
2024/03/10 01:59:53;;;;;;;21.40;11.80;;;;;;;-1.47;100.00;100247.92;105971;1256;60525;-58
2024/03/10 02:02:22;;;;;;;20.10;11.30;;;;;;;-1.48;100.00;100246.85;105975;1258;71718;-57
2024/03/10 02:04:50;;;;;;;22.30;12.10;;;;;;;-1.50;100.00;100249.83;105945;1259;65521;-56
2024/03/10 02:07:18;;;;;;;23.10;11.90;;;;;;;-1.55;100.00;100254.55;105995;1258;71145;-56
2024/03/10 02:09:47;;;;;;;20.40;12.10;;;;;;;-1.58;100.00;100254.86;105982;1256;61375;-58
2024/03/10 02:12:15;;;;;;;22.10;12.50;;;;;;;-1.61;100.00;100250.96;106199;1259;60120;-57
2024/03/10 02:15:00;;;;;;;23.90;12.40;;;;;;;-1.63;100.00;100250.08;106595;1255;74132;-58
2024/03/10 02:17:28;;;;;;;26.50;14.30;;;;;;;-1.67;100.00;100251.09;106178;1258;66954;-57
2024/03/10 02:19:57;;;;;;;26.30;14.70;;;;;;;-1.69;100.00;100247.36;106333;1256;71452;-57
2024/03/10 02:22:24;;;;;;;26.40;13.80;;;;;;;-1.72;100.00;100249.30;106501;1256;60398;-58
2024/03/10 02:24:54;;;;;;;34.70;16.50;;;;;;;-1.75;100.00;100248.56;106091;1253;61300;-58
2024/03/10 02:27:22;;;;;;;30.10;16.30;;;;;;;-1.78;100.00;100245.19;106064;1254;74208;-59
2024/03/10 02:49:16;;;;;;;28.70;15.80;;;;;;;-1.73;100.00;100241.19;106225;1259;60293;-56
2024/03/10 02:51:43;;;;;;;28.40;13.80;;;;;;;-1.71;100.00;100239.63;106041;1256;60386;-57
2024/03/10 02:54:11;;;;;;;30.50;15.10;;;;;;;-1.70;100.00;100232.23;105992;1258;74222;-56
2024/03/10 02:56:39;;;;;;;25.20;13.40;;;;;;;-1.68;100.00;100232.60;105952;1258;66183;-57
2024/03/10 02:59:07;;;;;;;24.40;13.10;;;;;;;-1.66;100.00;100232.45;106063;1264;71385;-55
2024/03/10 03:01:40;;;;;;;30.00;12.80;;;;;;;-1.64;100.00;100234.23;106015;1258;60573;-58
2024/03/10 03:04:08;;;;;;;24.90;12.30;;;;;;;-1.62;100.00;100228.98;105856;1270;60328;-55
2024/03/10 03:06:36;;;;;;;25.00;13.20;;;;;;;-1.61;100.00;100228.27;105870;1259;74343;-56
2024/03/10 03:09:05;;;;;;;20.60;12.70;;;;;;;-1.59;100.00;100223.87;105974;1256;67765;-58
2024/03/10 03:11:32;;;;;;;27.60;13.20;;;;;;;-1.58;100.00;100228.64;107459;1258;71422;-57
2024/03/10 03:14:07;;;;;;;21.10;12.90;;;;;;;-1.57;100.00;100226.90;105944;1258;61190;-55
2024/03/10 03:16:35;;;;;;;23.60;12.70;;;;;;;-1.55;100.00;100228.48;106028;1256;60566;-56
2024/03/10 03:19:03;;;;;;;19.60;11.40;;;;;;;-1.52;100.00;100225.33;105994;1257;73858;-57
2024/03/10 03:21:33;;;;;;;23.50;11.40;;;;;;;-1.49;100.00;100223.95;107470;1256;66114;-55
2024/03/10 03:24:00;;;;;;;21.50;10.20;;;;;;;-1.46;100.00;100217.83;107506;1258;71762;-60
2024/03/10 03:26:27;;;;;;;21.50;10.90;;;;;;;-1.43;100.00;100216.23;105967;1258;60598;-59
2024/03/10 03:28:55;;;;;;;24.60;10.60;;;;;;;-1.40;100.00;100215.40;105934;1259;60550;-59
2024/03/10 03:31:22;;;;;;;21.10;9.80;;;;;;;-1.35;100.00;100213.67;106008;1258;72745;-55
2024/03/10 03:33:49;;;;;;;20.80;11.20;;;;;;;-1.31;100.00;100210.37;106003;1264;65731;-57
2024/03/10 03:36:17;;;;;;;22.40;9.50;;;;;;;-1.26;100.00;100207.58;106055;1256;73194;-56
2024/03/10 03:38:44;;;;;;;22.70;11.60;;;;;;;-1.22;100.00;100204.79;106002;1258;61454;-57
2024/03/10 03:41:12;;;;;;;20.10;10.70;;;;;;;-1.17;100.00;100200.75;109135;1255;60011;-57
2024/03/10 03:43:39;;;;;;;22.90;10.40;;;;;;;-1.13;100.00;100199.73;106948;1258;71609;-55
2024/03/10 03:46:07;;;;;;;21.90;10.10;;;;;;;-1.11;100.00;100196.58;106058;1259;66697;-59
2024/03/10 03:48:34;;;;;;;20.50;11.10;;;;;;;-1.08;100.00;100197.81;105972;1264;72677;-55
2024/03/10 03:51:01;;;;;;;20.30;11.40;;;;;;;-1.06;100.00;100192.37;105965;1265;60510;-59
2024/03/10 03:53:29;;;;;;;24.80;11.10;;;;;;;-1.04;100.00;100188.70;105963;1261;60378;-56
2024/03/10 03:55:56;;;;;;;23.30;12.00;;;;;;;-1.03;100.00;100183.59;106132;1258;72632;-57
2024/03/10 03:58:23;;;;;;;19.80;9.70;;;;;;;-1.02;100.00;100183.05;105992;1262;66987;-60
2024/03/10 04:00:52;;;;;;;22.40;10.50;;;;;;;-1.01;100.00;100181.63;106029;1255;71454;-57
2024/03/10 04:03:19;;;;;;;22.50;10.50;;;;;;;-1.01;100.00;100179.88;106208;1258;61311;-56
2024/03/10 04:05:46;;;;;;;20.40;10.30;;;;;;;-1.00;100.00;100180.77;106081;1258;61725;-58
2024/03/10 04:08:14;;;;;;;20.40;9.50;;;;;;;-1.01;100.00;100182.17;106035;1258;73891;-55
2024/03/10 04:10:41;;;;;;;15.90;8.80;;;;;;;-1.00;100.00;100182.18;106004;1255;65736;-56
2024/03/10 04:13:09;;;;;;;19.20;9.60;;;;;;;-0.98;100.00;100186.95;105892;1256;70846;-54
2024/03/10 04:15:36;;;;;;;20.50;8.90;;;;;;;-0.96;100.00;100186.80;106042;1261;61334;-59
2024/03/10 04:18:04;;;;;;;18.10;9.60;;;;;;;-0.92;100.00;100189.27;106107;1258;60848;-56
2024/03/10 04:20:33;;;;;;;12.90;7.30;;;;;;;-0.88;100.00;100192.46;106147;1258;72981;-58
2024/03/10 04:23:05;;;;;;;21.00;8.70;;;;;;;-0.84;100.00;100193.18;105964;1276;67746;-55
2024/03/10 04:25:33;;;;;;;16.10;7.80;;;;;;;-0.80;100.00;100194.61;106110;1253;73441;-59
2024/03/10 04:28:01;;;;;;;17.60;9.00;;;;;;;-0.74;100.00;100193.92;106092;1256;60503;-56
2024/03/10 04:30:28;;;;;;;17.90;8.90;;;;;;;-0.70;100.00;100193.77;106003;1270;60760;-55
2024/03/10 04:32:56;;;;;;;21.40;10.00;;;;;;;-0.66;100.00;100193.25;105984;1255;74118;-56
2024/03/10 04:35:24;;;;;;;16.60;9.60;;;;;;;-0.63;100.00;100195.21;106245;1258;67304;-58
2024/03/10 04:37:53;;;;;;;16.80;9.00;;;;;;;-0.60;100.00;100196.11;105992;1270;72634;-56
2024/03/10 04:40:21;;;;;;;18.70;9.30;;;;;;;-0.58;100.00;100196.80;106148;1257;60522;-57
2024/03/10 04:42:48;;;;;;;17.80;7.70;;;;;;;-0.58;100.00;100199.45;106057;1256;60497;-56
2024/03/10 04:45:16;;;;;;;16.30;8.90;;;;;;;-0.56;100.00;100200.88;105974;1271;72627;-55
2024/03/10 04:47:43;;;;;;;15.20;7.50;;;;;;;-0.55;100.00;100198.06;106017;1256;67989;-56
2024/03/10 04:50:12;;;;;;;16.90;7.80;;;;;;;-0.54;100.00;100198.25;105904;1258;72572;-55
2024/03/10 04:52:41;;;;;;;13.80;7.60;;;;;;;-0.52;100.00;100198.79;106001;1259;60509;-55
2024/03/10 04:55:10;;;;;;;15.90;8.00;;;;;;;-0.50;100.00;100196.14;105933;1271;60626;-56
2024/03/10 04:57:37;;;;;;;13.80;8.00;;;;;;;-0.46;100.00;100201.96;105996;1256;73910;-54
2024/03/10 05:00:10;;;;;;;17.10;7.10;;;;;;;-0.41;100.00;100203.73;106017;1254;66892;-55
2024/03/10 05:02:37;;;;;;;16.80;7.50;;;;;;;-0.36;100.00;100201.29;106449;1258;70483;-59
2024/03/10 05:05:06;;;;;;;15.50;8.60;;;;;;;-0.28;100.00;100197.96;105989;1258;60372;-56
2024/03/10 05:07:35;;;;;;;22.00;10.10;;;;;;;-0.20;100.00;100202.92;105958;1260;60433;-56
2024/03/10 05:10:03;;;;;;;21.90;8.40;;;;;;;-0.12;100.00;100211.23;106277;1259;73933;-57
2024/03/10 05:12:31;;;;;;;15.90;8.80;;;;;;;-0.03;100.00;100212.48;107734;1253;65843;-56
2024/03/10 05:14:58;;;;;;;15.90;7.60;;;;;;;0.05;100.00;100207.20;106067;1259;71511;-56
2024/03/10 05:17:25;;;;;;;15.40;7.70;;;;;;;0.12;100.00;100209.67;106087;1256;60545;-55
2024/03/10 05:19:53;;;;;;;18.80;8.60;;;;;;;0.19;100.00;100214.79;106016;1266;61360;-55
2024/03/10 05:22:20;;;;;;;11.10;7.80;;;;;;;0.26;100.00;100214.45;106060;1256;74629;-55
2024/03/10 05:24:47;;;;;;;18.80;8.60;;;;;;;0.33;100.00;100218.16;106017;1253;66974;-54
2024/03/10 05:27:15;;;;;;;19.20;8.90;;;;;;;0.40;100.00;100221.52;106068;1256;71749;-57
2024/03/10 05:29:43;;;;;;;17.30;8.30;;;;;;;0.47;100.00;100217.10;106086;1259;60516;-57
2024/03/10 05:32:11;;;;;;;15.90;8.50;;;;;;;0.55;100.00;100214.63;106382;1258;61513;-55
2024/03/10 05:34:39;;;;;;;14.40;8.70;;;;;;;0.66;100.00;100217.79;107561;1257;72955;-56
2024/03/10 05:37:07;;;;;;;19.40;8.20;;;;;;;0.80;100.00;100221.33;106059;1256;67312;-55
2024/03/10 05:39:34;;;;;;;15.60;8.50;;;;;;;0.93;100.00;100222.52;105891;1253;136018;-54
2024/03/10 05:43:56;;;;;;;17.60;7.90;;;;;;;1.20;100.00;100227.23;102792;1294;601757;-53
2024/03/10 05:46:24;;;;;;;14.70;8.10;;;;;;;1.36;100.00;100227.17;105468;1269;60307;-54
2024/03/10 05:48:51;;;;;;;15.70;8.60;;;;;;;1.55;100.00;100225.86;105231;1266;60942;-55
2024/03/10 05:51:19;;;;;;;11.30;7.30;;;;;;;1.75;100.00;100221.34;105224;1273;72475;-54
2024/03/10 05:53:46;;;;;;;15.10;7.90;;;;;;;1.94;100.00;100213.62;105366;1267;67004;-53
2024/03/10 05:56:13;;;;;;;16.00;7.90;;;;;;;2.10;100.00;100212.63;105265;1270;71667;-52
2024/03/10 05:58:42;;;;;;;14.00;7.60;;;;;;;2.23;100.00;100208.13;105432;1279;237754;-52
2024/03/10 06:01:11;;;;;;;14.50;8.30;;;;;;;2.35;100.00;100204.13;105451;1263;60078;-54
2024/03/10 06:03:39;;;;;;;12.70;7.30;;;;;;;2.46;100.00;100198.01;106001;1267;72445;-54
2024/03/10 06:06:09;;;;;;;16.80;9.00;;;;;;;2.54;100.00;100196.52;105411;1266;65463;-55
2024/03/10 06:08:36;;;;;;;14.90;7.30;;;;;;;2.61;100.00;100194.35;105905;1264;71687;-56
2024/03/10 06:11:04;;;;;;;23.20;8.30;;;;;;;2.66;100.00;100193.75;105460;1270;59645;-56
2024/03/10 06:13:31;;;;;;;19.30;7.40;;;;;;;2.70;100.00;100196.92;106237;1264;59376;-55
2024/03/10 06:15:58;;;;;;;14.80;7.90;;;;;;;2.74;100.00;100203.78;105388;1266;73801;-56
2024/03/10 06:18:31;;;;;;;15.20;8.20;;;;;;;2.77;100.00;100201.64;105349;1264;66806;-56
2024/03/10 06:26:31;;;;;;;19.20;8.50;;;;;;;2.94;100.00;100198.10;105439;1269;60239;-57
2024/03/10 06:29:00;;;;;;;14.60;7.40;;;;;;;2.99;100.00;100194.67;108835;1256;71839;-56
2024/03/10 06:31:28;;;;;;;15.00;7.20;;;;;;;3.04;100.00;100189.13;108934;1255;67382;-58
2024/03/10 06:33:57;;;;;;;11.50;6.50;;;;;;;3.10;100.00;100190.30;108757;1256;72377;-57
2024/03/10 06:36:24;;;;;;;13.80;6.50;;;;;;;3.16;100.00;100192.01;108848;1258;59333;-58
2024/03/10 06:38:52;;;;;;;15.90;6.60;;;;;;;3.23;100.00;100192.29;107198;1259;59575;-57
2024/03/10 06:41:20;;;;;;;14.30;7.20;;;;;;;3.29;100.00;100190.27;108957;1255;72736;-58
2024/03/10 06:43:49;;;;;;;13.00;6.70;;;;;;;3.35;100.00;100192.13;108970;1256;66925;-58
2024/03/10 06:46:17;;;;;;;11.10;6.60;;;;;;;3.41;100.00;100192.41;108830;1256;72781;-56
2024/03/10 06:48:44;;;;;;;12.70;7.50;;;;;;;3.47;100.00;100200.34;108747;1256;58988;-57
2024/03/10 06:51:11;;;;;;;11.90;6.20;;;;;;;3.50;100.00;100198.15;108836;1256;58919;-57
2024/03/10 06:53:39;;;;;;;12.20;7.50;;;;;;;3.56;100.00;100197.73;108909;1255;70799;-57
2024/03/10 06:56:06;;;;;;;13.70;7.60;;;;;;;3.61;100.00;100197.66;108761;1256;67565;-57
2024/03/10 06:58:33;;;;;;;10.70;6.60;;;;;;;3.66;100.00;100197.23;108811;1256;71460;-56
2024/03/10 07:01:07;;;;;;;12.70;8.20;;;;;;;3.71;100.00;100197.17;108813;1256;59169;-56
2024/03/10 07:03:35;;;;;;;20.40;6.90;;;;;;;3.77;100.00;100200.27;107305;1256;61486;-57
2024/03/10 07:06:05;;;;;;;16.00;8.20;;;;;;;3.85;100.00;100196.98;105944;1256;73300;-57
2024/03/10 07:08:32;;;;;;;17.80;8.50;;;;;;;3.93;100.00;100196.52;108735;1255;65764;-57
2024/03/10 07:11:00;;;;;;;10.80;6.60;;;;;;;3.99;100.00;100201.40;106492;1260;72716;-57
2024/03/10 07:13:28;;;;;;;13.00;7.80;;;;;;;4.06;100.00;100201.29;106258;1258;59704;-57
2024/03/10 07:15:56;;;;;;;14.70;7.50;;;;;;;4.11;100.00;100204.58;108735;1256;60989;-57
2024/03/10 07:18:23;;;;;;;12.70;7.40;;;;;;;4.16;100.00;100210.55;108805;1259;70983;-57
2024/03/10 07:20:51;;;;;;;15.90;8.80;;;;;;;4.19;100.00;100211.03;108898;1256;65748;-57
2024/03/10 07:23:21;;;;;;;16.00;7.90;;;;;;;4.23;100.00;100211.70;108752;1256;73181;-57
2024/03/10 07:25:49;;;;;;;15.00;7.80;;;;;;;4.29;100.00;100213.19;108771;1256;59974;-56
2024/03/10 07:28:16;;;;;;;16.30;7.80;;;;;;;4.33;100.00;100206.21;108872;1256;60069;-58
2024/03/10 07:30:44;;;;;;;12.80;7.30;;;;;;;4.37;100.00;100210.58;106544;1259;73114;-57
2024/03/10 07:33:11;;;;;;;15.20;7.70;;;;;;;4.42;100.00;100207.65;105920;1261;66064;-57
2024/03/10 07:35:38;;;;;;;12.90;8.20;;;;;;;4.49;100.00;100209.30;106125;1262;71776;-57
2024/03/10 07:38:06;;;;;;;17.10;7.80;;;;;;;4.58;100.00;100206.67;105911;1256;60527;-57
2024/03/10 07:40:34;;;;;;;11.90;6.60;;;;;;;4.69;100.00;100202.77;106186;1260;60118;-57
2024/03/10 07:43:01;;;;;;;12.00;7.10;;;;;;;4.77;100.00;100202.43;105870;1259;72099;-55
2024/03/10 07:45:28;;;;;;;12.00;7.20;;;;;;;4.86;100.00;100203.35;105892;1260;65337;-58
2024/03/10 07:47:58;;;;;;;13.70;7.80;;;;;;;4.92;100.00;100205.55;105980;1259;71894;-56
2024/03/10 07:50:25;;;;;;;17.20;7.20;;;;;;;4.97;100.00;100207.59;106014;1260;59627;-57
2024/03/10 07:52:52;;;;;;;18.50;8.40;;;;;;;5.01;100.00;100199.51;105967;1256;60532;-57
2024/03/10 07:55:21;;;;;;;17.50;8.30;;;;;;;5.08;100.00;100198.67;106123;1261;73114;-57
2024/03/10 07:57:49;;;;;;;15.50;8.30;;;;;;;5.15;100.00;100201.02;105940;1257;67412;-57
2024/03/10 08:00:21;;;;;;;13.10;7.20;;;;;;;5.23;100.00;100203.71;105916;1262;73127;-56
2024/03/10 08:02:49;;;;;;;19.30;8.70;;;;;;;5.30;100.00;100204.81;105847;1262;60287;-57
2024/03/10 08:05:18;;;;;;;14.50;8.40;;;;;;;5.37;100.00;100198.98;105870;1256;59479;-57
2024/03/10 08:07:46;;;;;;;15.00;8.00;;;;;;;5.42;100.00;100197.65;105841;1260;72866;-57
2024/03/10 08:10:17;;;;;;;12.00;7.40;;;;;;;5.44;100.00;100198.30;106533;1261;67089;-57
2024/03/10 08:12:46;;;;;;;13.70;7.60;;;;;;;5.46;100.00;100199.52;106066;1257;73126;-57
2024/03/10 08:15:13;;;;;;;12.50;6.60;;;;;;;5.49;100.00;100198.92;105896;1259;59616;-57
2024/03/10 08:17:44;;;;;;;11.30;6.50;;;;;;;5.52;100.00;100199.92;106204;1256;59729;-57
2024/03/10 08:20:14;;;;;;;11.00;6.00;;;;;;;5.56;100.00;100204.46;105933;1272;73093;-56
2024/03/10 08:22:43;;;;;;;19.00;7.70;;;;;;;5.59;100.00;100203.52;105905;1256;65026;-58
2024/03/10 08:25:11;;;;;;;13.00;7.90;;;;;;;5.63;100.00;100209.66;105981;1260;72874;-57
2024/03/10 08:27:38;;;;;;;12.70;7.10;;;;;;;5.65;100.00;100204.98;105932;1258;59862;-56
2024/03/10 08:30:09;;;;;;;14.60;7.30;;;;;;;5.69;100.00;100203.13;106007;1255;60744;-57
2024/03/10 08:32:37;;;;;;;12.90;8.00;;;;;;;5.73;100.00;100196.09;105936;1256;73245;-57
2024/03/10 08:35:09;;;;;;;16.60;7.20;;;;;;;5.77;100.00;100196.92;106086;1259;67427;-56
2024/03/10 08:37:44;;;;;;;16.20;7.00;;;;;;;5.83;100.00;100198.20;105943;1259;73498;-57
2024/03/10 08:40:15;;;;;;;10.50;6.60;;;;;;;5.91;100.00;100206.23;106180;1260;60030;-57
2024/03/10 08:42:43;;;;;;;14.30;7.20;;;;;;;6.00;100.00;100206.40;105861;1261;60976;-57
2024/03/10 08:45:12;;;;;;;12.80;5.90;;;;;;;6.08;100.00;100205.33;106603;1260;71869;-57
2024/03/10 08:47:41;;;;;;;10.10;6.00;;;;;;;6.13;100.00;100205.92;107586;1260;67766;-57
2024/03/10 08:50:12;;;;;;;12.30;5.80;;;;;;;6.15;100.00;100208.38;107096;1256;71574;-58
2024/03/10 08:52:40;;;;;;;12.00;5.50;;;;;;;6.16;100.00;100208.70;106431;1261;59767;-58
2024/03/10 08:55:08;;;;;;;9.50;6.20;;;;;;;6.20;100.00;100212.71;106010;1256;60087;-56
2024/03/10 08:57:38;;;;;;;5.60;3.80;;;;;;;6.27;100.00;100214.88;105902;1257;73131;-57
2024/03/10 09:00:06;;;;;;;10.90;5.90;;;;;;;6.33;100.00;100218.81;106011;1256;65587;-58
2024/03/10 09:02:33;;;;;;;11.30;5.20;;;;;;;6.39;100.00;100218.48;106122;1262;74358;-57
2024/03/10 09:05:01;;;;;;;8.70;4.40;;;;;;;6.39;100.00;100222.59;107663;1259;59645;-56
2024/03/10 09:07:28;;;;;;;11.90;4.60;;;;;;;6.39;100.00;100224.90;106668;1256;59630;-57
2024/03/10 09:09:57;;;;;;;9.60;5.00;;;;;;;6.41;100.00;100224.84;106059;1256;73504;-57
2024/03/10 09:12:27;;;;;;;9.60;5.40;;;;;;;6.42;100.00;100223.94;106042;1256;66072;-58
2024/03/10 09:14:56;;;;;;;5.80;3.70;;;;;;;6.44;100.00;100226.57;107049;1260;71477;-57
2024/03/10 09:17:25;;;;;;;9.80;5.70;;;;;;;6.48;100.00;100226.46;105927;1257;59731;-57
2024/03/10 09:19:52;;;;;;;8.70;4.00;;;;;;;6.53;100.00;100221.55;108865;1255;58625;-58
2024/03/10 09:22:20;;;;;;;6.30;4.30;;;;;;;6.57;100.00;100219.48;108796;1256;73129;-58
2024/03/10 09:24:50;;;;;;;7.60;2.50;;;;;;;6.62;100.00;100217.75;109004;1256;65638;-58
2024/03/10 09:27:19;;;;;;;9.50;3.90;;;;;;;6.70;100.00;100217.38;108786;1256;71690;-56
2024/03/10 09:29:47;;;;;;;6.00;3.20;;;;;;;6.76;100.00;100213.27;108820;1256;58068;-56
2024/03/10 09:32:19;;;;;;;8.50;5.00;;;;;;;6.84;100.00;100210.77;108844;1255;60147;-55
2024/03/10 09:34:47;;;;;;;5.80;4.40;;;;;;;6.93;100.00;100209.65;107165;1257;73391;-57
2024/03/10 09:37:15;;;;;;;8.40;4.10;;;;;;;6.99;100.00;100208.23;105975;1260;67055;-57
2024/03/10 09:39:43;;;;;;;7.30;3.70;;;;;;;7.04;100.00;100207.75;105915;1256;71474;-57
2024/03/10 09:42:14;;;;;;;6.40;4.20;;;;;;;7.10;100.00;100211.67;108926;1256;60503;-58
2024/03/10 09:44:45;;;;;;;8.00;3.20;;;;;;;7.12;100.00;100209.67;108185;1259;59145;-58
2024/03/10 09:47:12;;;;;;;8.60;4.30;;;;;;;7.10;100.00;100208.66;108885;1256;71840;-57
2024/03/10 09:49:42;;;;;;;6.40;4.10;;;;;;;7.08;100.00;100206.90;108861;1256;65988;-58
2024/03/10 09:52:09;;;;;;;6.00;3.70;;;;;;;7.11;100.00;100210.24;108784;1256;71522;-58
2024/03/10 09:54:38;;;;;;;5.50;3.60;;;;;;;7.15;100.00;100208.86;108866;1256;59293;-57
2024/03/10 09:57:08;;;;;;;7.40;4.30;;;;;;;7.20;100.00;100211.06;108886;1255;59088;-58
2024/03/10 09:59:42;;;;;;;8.30;4.30;;;;;;;7.22;100.00;100209.41;108799;1255;74090;-58
2024/03/10 10:02:25;;;;;;;10.20;4.00;;;;;;;7.24;100.00;100207.02;108256;1259;67247;-60
2024/03/10 10:04:56;;;;;;;8.20;4.20;;;;;;;7.30;100.00;100207.04;107268;1256;71858;-56
2024/03/10 10:07:26;;;;;;;6.80;3.60;;;;;;;7.36;100.00;100206.87;106578;1259;60639;-58
2024/03/10 10:09:58;;;;;;;7.00;3.20;;;;;;;7.38;100.00;100212.88;105936;1262;60336;-58
2024/03/10 10:12:27;;;;;;;6.20;4.20;;;;;;;7.37;100.00;100219.69;106105;1256;74337;-58
2024/03/10 10:14:55;;;;;;;8.10;3.80;;;;;;;7.36;100.00;100214.02;106070;1263;66956;-58
2024/03/10 10:17:25;;;;;;;6.10;4.50;;;;;;;7.35;100.00;100206.16;105942;1272;73880;-58
2024/03/10 10:19:52;;;;;;;9.40;3.40;;;;;;;7.37;100.00;100205.39;105956;1256;60453;-58
2024/03/10 10:22:20;;;;;;;8.20;3.30;;;;;;;7.38;100.00;100204.33;105810;1272;60302;-57
2024/03/10 10:25:04;;;;;;;3.20;2.70;;;;;;;7.35;100.00;100204.93;106116;1259;73817;-58
2024/03/10 10:27:51;;;;;;;5.50;2.70;;;;;;;7.35;100.00;100206.16;106102;1256;67907;-58
2024/03/10 10:30:27;;;;;;;4.90;3.30;;;;;;;7.35;100.00;100207.05;106392;1256;71502;-59
2024/03/10 10:33:11;;;;;;;8.50;3.80;;;;;;;7.36;100.00;100200.62;106125;1256;60545;-58
2024/03/10 10:35:39;;;;;;;5.00;3.20;;;;;;;7.38;100.00;100198.59;107983;1258;60473;-59
2024/03/10 10:38:13;;;;;;;5.40;2.50;;;;;;;7.43;100.00;100196.30;106018;1256;73883;-57
2024/03/10 10:40:44;;;;;;;;;;;;;;;7.49;100.00;100200.05;105923;1262;66931;-57
2024/03/10 10:43:12;;;;;;;6.40;2.80;;;;;;;7.53;100.00;100196.91;105938;1256;72689;-57
2024/03/10 10:45:43;;;;;;;8.40;3.80;;;;;;;7.59;100.00;100196.20;105987;1268;60329;-58
2024/03/10 10:48:11;;;;;;;5.80;2.90;;;;;;;7.63;100.00;100192.52;105932;1269;60525;-57
2024/03/10 10:50:42;;;;;;;7.30;3.10;;;;;;;7.64;100.00;100192.50;105981;1260;76785;-57
2024/03/10 10:53:11;;;;;;;6.80;2.80;;;;;;;7.63;100.00;100193.79;105975;1259;66946;-57
2024/03/10 10:55:40;;;;;;;4.60;2.60;;;;;;;7.63;100.00;100192.70;106600;1262;71495;-58
2024/03/10 10:58:11;;;;;;;4.40;2.70;;;;;;;7.65;100.00;100193.88;106115;1261;61203;-58
2024/03/10 11:00:42;;;;;;;4.70;2.50;;;;;;;7.68;100.00;100195.92;105713;1260;60591;-57
2024/03/10 11:03:18;;;;;;;7.40;3.20;;;;;;;7.72;100.00;100188.15;105760;1262;72663;-56
2024/03/10 11:06:08;;;;;;;5.50;2.20;;;;;;;7.75;100.00;100183.21;105860;1256;66949;-58
2024/03/10 11:08:37;;;;;;;4.50;2.30;;;;;;;7.80;100.00;100179.14;105980;1262;72691;-56
2024/03/10 11:11:05;;;;;;;5.80;2.60;;;;;;;7.86;100.00;100180.73;106010;1262;61301;-57
2024/03/10 11:13:33;;;;;;;5.90;3.50;;;;;;;7.90;100.00;100182.94;106111;1261;61206;-58
2024/03/10 11:16:04;;;;;;;5.30;2.70;;;;;;;7.92;100.00;100182.86;105967;1256;71802;-57
2024/03/10 11:18:37;;;;;;;7.30;2.90;;;;;;;7.90;100.00;100185.64;106299;1261;67363;-58
2024/03/10 11:21:05;;;;;;;8.10;2.40;;;;;;;7.92;100.00;100182.52;106016;1272;72691;-59
2024/03/10 11:23:42;;;;;;;3.70;2.10;;;;;;;7.94;100.00;100180.66;106272;1256;60538;-58
2024/03/10 11:26:15;;;;;;;4.30;2.50;;;;;;;7.99;100.00;100182.14;105847;1255;60550;-57
2024/03/10 11:28:53;;;;;;;4.70;3.40;;;;;;;8.02;100.00;100173.27;106305;1256;72502;-58
2024/03/10 11:31:20;;;;;;;8.80;2.20;;;;;;;8.04;100.00;100165.52;105870;1262;66036;-60
2024/03/10 11:33:51;;;;;;;4.80;2.40;;;;;;;8.06;100.00;100177.65;105968;1260;73182;-59
2024/03/10 11:36:22;;;;;;;5.60;4.10;;;;;;;8.04;100.00;100174.66;105982;1259;60652;-59
2024/03/10 11:38:51;;;;;;;6.40;3.60;;;;;;;8.03;100.00;100178.61;105970;1260;60684;-58
2024/03/10 11:41:19;;;;;;;7.30;3.60;;;;;;;7.99;100.00;100178.73;106398;1259;73943;-57